createdAt,value
2022-11-19T00:00:17.243Z,0.90
2022-11-19T00:02:47.537Z,0.68
2022-11-19T00:05:18.054Z,0.60
2022-11-19T00:07:48.657Z,0.60
2022-11-19T00:10:19.357Z,0.50
2022-11-19T00:12:58.800Z,0.43
2022-11-19T00:15:32.347Z,0.40
2022-11-19T00:18:02.684Z,0.95
2022-11-19T00:20:34.220Z,0.88
2022-11-19T00:23:05.177Z,0.40
2022-11-19T00:25:37.640Z,0.82
2022-11-19T00:28:08.507Z,0.50
2022-11-19T00:30:48.048Z,0.32
2022-11-19T00:33:19.018Z,0.95
2022-11-19T00:35:49.228Z,0.40
2022-11-19T00:38:23.741Z,0.38
2022-11-19T00:40:54.034Z,0.38
2022-11-19T00:43:42.172Z,0.30
2022-11-19T00:46:12.974Z,0.57
2022-11-19T00:48:43.361Z,0.43
2022-11-19T00:51:14.789Z,0.57
2022-11-19T00:53:45.045Z,0.45
2022-11-19T00:56:21.104Z,0.30
2022-11-19T00:58:51.947Z,0.38
2022-11-19T01:01:24.918Z,0.60
2022-11-19T01:03:56.156Z,0.30
2022-11-19T01:06:28.276Z,0.40
2022-11-19T01:08:58.949Z,0.40
2022-11-19T01:11:35.083Z,0.30
2022-11-19T01:14:07.334Z,0.30
2022-11-19T01:16:43.007Z,0.60
2022-11-19T01:19:18.211Z,0.57
2022-11-19T01:21:48.689Z,0.50
2022-11-19T01:24:18.991Z,0.40
2022-11-19T01:26:49.360Z,0.30
2022-11-19T01:29:20.011Z,0.40
2022-11-19T01:31:50.413Z,0.30
2022-11-19T01:34:20.649Z,0.25
2022-11-19T01:36:50.978Z,0.50
2022-11-19T01:39:21.528Z,0.30
2022-11-19T01:41:52.357Z,0.60
2022-11-19T01:44:56.133Z,0.40
2022-11-19T01:47:26.556Z,0.30
2022-11-19T01:49:56.999Z,0.40
2022-11-19T01:52:27.829Z,0.30
2022-11-19T01:54:58.815Z,0.40
2022-11-19T01:57:29.284Z,0.40
2022-11-19T01:59:59.587Z,0.40
2022-11-19T02:02:29.853Z,0.50
2022-11-19T02:05:00.662Z,0.30
2022-11-19T02:07:34.618Z,0.30
2022-11-19T02:10:07.719Z,0.38
2022-11-19T02:13:04.885Z,0.40
2022-11-19T02:15:59.123Z,0.55
2022-11-19T02:19:15.012Z,0.47
2022-11-19T02:22:08.310Z,0.30
2022-11-19T02:25:04.985Z,0.38
2022-11-19T02:27:59.241Z,0.40
2022-11-19T02:30:40.613Z,0.25
2022-11-19T02:33:19.163Z,0.20
2022-11-19T02:36:05.554Z,0.20
2022-11-19T02:38:50.063Z,0.47
2022-11-19T02:41:41.177Z,0.40
2022-11-19T02:44:53.660Z,0.57
2022-11-19T02:47:36.709Z,0.20
2022-11-19T02:50:16.067Z,0.20
2022-11-19T02:52:47.615Z,0.32
2022-11-19T02:55:22.231Z,0.50
2022-11-19T02:57:59.191Z,0.28
2022-11-19T03:00:49.100Z,0.22
2022-11-19T03:03:40.345Z,0.25
2022-11-19T03:06:17.097Z,0.30
2022-11-19T03:08:49.416Z,0.30
2022-11-19T03:11:25.683Z,0.30
2022-11-19T03:14:15.359Z,0.30
2022-11-19T03:17:03.533Z,0.30
2022-11-19T03:19:34.356Z,0.38
2022-11-19T03:22:12.092Z,0.30
2022-11-19T03:24:53.345Z,0.20
2022-11-19T03:27:46.938Z,0.20
2022-11-19T03:30:19.837Z,0.40
2022-11-19T03:33:19.563Z,0.20
2022-11-19T03:36:02.983Z,0.30
2022-11-19T03:38:44.544Z,0.20
2022-11-19T03:41:17.715Z,0.22
2022-11-19T03:43:53.254Z,0.28
2022-11-19T03:46:25.457Z,0.30
2022-11-19T03:48:57.378Z,0.20
2022-11-19T03:51:51.071Z,0.20
2022-11-19T03:54:21.940Z,0.40
2022-11-19T03:56:52.837Z,0.77
2022-11-19T03:59:28.146Z,0.30
2022-11-19T04:02:07.117Z,0.90
2022-11-19T04:04:40.871Z,0.20
2022-11-19T04:07:16.745Z,0.30
2022-11-19T04:09:47.234Z,0.20
2022-11-19T04:12:28.045Z,0.30
2022-11-19T04:14:58.287Z,0.30
2022-11-19T04:17:28.754Z,0.52
2022-11-19T04:19:59.071Z,0.30
2022-11-19T04:22:29.706Z,0.45
2022-11-19T04:24:59.904Z,0.40
2022-11-19T04:27:30.149Z,0.25
2022-11-19T04:30:00.923Z,0.30
2022-11-19T04:32:31.651Z,0.30
2022-11-19T04:35:02.056Z,0.30
2022-11-19T04:37:32.893Z,0.20
2022-11-19T04:40:03.116Z,0.13
2022-11-19T04:42:34.306Z,0.40
2022-11-19T04:45:04.527Z,0.20
2022-11-19T04:47:34.800Z,0.20
2022-11-19T04:50:05.201Z,0.30
2022-11-19T04:52:40.553Z,0.32
2022-11-19T04:55:12.586Z,0.30
2022-11-19T04:57:42.983Z,0.20
2022-11-19T05:00:13.842Z,0.20
2022-11-19T05:02:44.279Z,0.30
2022-11-19T05:05:14.766Z,0.20
2022-11-19T05:07:45.083Z,0.20
2022-11-19T05:10:15.375Z,0.25
2022-11-19T05:12:45.770Z,0.20
2022-11-19T05:15:16.092Z,0.30
2022-11-19T05:17:47.817Z,0.47
2022-11-19T05:20:18.654Z,0.30
2022-11-19T05:22:49.142Z,0.20
2022-11-19T05:25:19.463Z,0.25
2022-11-19T05:27:50.177Z,0.30
2022-11-19T05:30:20.405Z,0.25
2022-11-19T05:32:50.951Z,0.38
2022-11-19T05:35:22.030Z,0.30
2022-11-19T05:37:53.684Z,0.13
2022-11-19T05:40:24.293Z,0.35
2022-11-19T05:42:55.389Z,0.20
2022-11-19T05:45:26.052Z,0.25
2022-11-19T05:48:00.812Z,0.20
2022-11-19T05:50:31.357Z,0.20
2022-11-19T05:53:02.731Z,0.60
2022-11-19T05:55:33.611Z,0.20
2022-11-19T05:58:05.981Z,0.30
2022-11-19T06:00:36.966Z,0.30
2022-11-19T06:03:07.664Z,0.45
2022-11-19T06:05:40.551Z,0.35
2022-11-19T06:08:11.546Z,0.20
2022-11-19T06:10:42.269Z,0.20
2022-11-19T06:13:12.921Z,0.20
2022-11-19T06:15:43.211Z,0.28
2022-11-19T06:18:13.430Z,0.20
2022-11-19T06:20:44.061Z,0.30
2022-11-19T06:23:14.720Z,0.25
2022-11-19T06:25:45.357Z,0.20
2022-11-19T06:28:17.164Z,0.30
2022-11-19T06:30:47.844Z,0.30
2022-11-19T06:33:18.658Z,0.30
2022-11-19T06:35:53.079Z,0.40
2022-11-19T06:38:36.294Z,0.20
2022-11-19T06:41:06.613Z,0.30
2022-11-19T06:43:36.896Z,0.28
2022-11-19T06:46:07.224Z,0.22
2022-11-19T06:48:38.254Z,0.20
2022-11-19T06:51:09.014Z,0.30
2022-11-19T06:53:39.396Z,0.28
2022-11-19T06:56:10.521Z,0.30
2022-11-19T06:58:41.384Z,0.30
2022-11-19T07:01:12.030Z,0.32
2022-11-19T07:03:42.488Z,0.20
2022-11-19T07:06:12.941Z,0.30
2022-11-19T07:08:43.380Z,0.40
2022-11-19T07:11:28.816Z,0.30
2022-11-19T07:14:00.643Z,0.60
2022-11-19T07:16:35.137Z,0.30
2022-11-19T07:19:08.822Z,0.35
2022-11-19T07:21:39.594Z,0.40
2022-11-19T07:24:12.160Z,0.20
2022-11-19T07:26:42.378Z,0.40
2022-11-19T07:29:15.952Z,0.30
2022-11-19T07:31:48.583Z,0.85
2022-11-19T07:34:19.724Z,0.30
2022-11-19T07:36:51.753Z,0.43
2022-11-19T07:39:22.342Z,0.45
2022-11-19T07:42:10.850Z,0.38
2022-11-19T07:44:41.899Z,0.50
2022-11-19T07:47:12.307Z,0.30
2022-11-19T07:49:42.523Z,0.40
2022-11-19T07:52:13.169Z,0.30
2022-11-19T07:54:44.397Z,0.40
2022-11-19T07:57:15.049Z,0.68
2022-11-19T07:59:45.364Z,0.40
2022-11-19T08:02:16.963Z,0.40
2022-11-19T08:04:47.268Z,0.70
2022-11-19T08:07:17.679Z,0.50
2022-11-19T08:09:48.028Z,0.80
2022-11-19T08:12:18.360Z,0.70
2022-11-19T08:14:48.753Z,0.95
2022-11-19T08:17:38.096Z,0.50
2022-11-19T08:20:10.056Z,0.80
2022-11-19T08:22:42.372Z,0.60
2022-11-19T08:25:13.213Z,0.40
2022-11-19T08:27:43.729Z,0.40
2022-11-19T08:30:15.493Z,0.70
2022-11-19T08:32:46.010Z,0.40
2022-11-19T08:35:16.973Z,0.60
2022-11-19T08:37:49.323Z,0.43
2022-11-19T08:40:21.424Z,0.30
2022-11-19T08:43:04.696Z,0.40
2022-11-19T08:45:41.949Z,0.35
2022-11-19T08:48:12.670Z,0.40
2022-11-19T08:50:45.272Z,0.30
2022-11-19T08:53:16.298Z,0.50
2022-11-19T08:55:53.991Z,0.98
2022-11-19T08:58:26.573Z,0.50
2022-11-19T09:00:57.881Z,0.52
2022-11-19T09:03:28.695Z,0.30
2022-11-19T09:06:03.677Z,0.50
2022-11-19T09:08:35.224Z,0.40
2022-11-19T09:11:17.722Z,0.50
2022-11-19T09:13:48.522Z,0.43
2022-11-19T09:16:20.844Z,0.43
2022-11-19T09:18:51.446Z,0.40
2022-11-19T09:21:22.485Z,0.35
2022-11-19T09:23:53.232Z,0.40
2022-11-19T09:26:23.972Z,0.30
2022-11-19T09:28:54.767Z,0.43
2022-11-19T09:31:27.413Z,0.60
2022-11-19T09:33:58.954Z,0.40
2022-11-19T09:36:29.639Z,0.30
2022-11-19T09:39:01.048Z,0.40
2022-11-19T09:41:58.969Z,0.73
2022-11-19T09:44:30.553Z,0.40
2022-11-19T09:47:23.452Z,0.40
2022-11-19T09:50:12.403Z,0.57
2022-11-19T09:53:02.147Z,0.30
2022-11-19T09:55:38.264Z,0.30
2022-11-19T09:58:18.285Z,0.30
2022-11-19T10:00:49.123Z,0.43
2022-11-19T10:03:27.405Z,0.30
2022-11-19T10:06:18.875Z,0.68
2022-11-19T10:09:14.360Z,0.40
2022-11-19T10:11:57.145Z,0.65
2022-11-19T10:14:37.017Z,0.75
2022-11-19T10:17:31.073Z,0.40
2022-11-19T10:20:19.520Z,0.30
2022-11-19T10:23:00.423Z,0.40
2022-11-19T10:25:46.217Z,0.40
2022-11-19T10:28:25.817Z,0.20
2022-11-19T10:31:06.032Z,0.22
2022-11-19T10:33:50.101Z,0.60
2022-11-19T10:36:34.313Z,0.40
2022-11-19T10:39:27.057Z,0.35
2022-11-19T10:42:12.239Z,0.40
2022-11-19T10:45:06.124Z,0.40
2022-11-19T10:48:08.679Z,0.47
2022-11-19T10:50:40.478Z,0.47
2022-11-19T10:53:30.133Z,0.55
2022-11-19T10:56:24.110Z,0.50
2022-11-19T10:59:03.379Z,0.65
2022-11-19T11:01:34.960Z,1.00
2022-11-19T11:04:18.040Z,1.05
2022-11-19T11:07:01.434Z,1.20
2022-11-19T11:09:38.664Z,1.15
2022-11-19T11:12:37.048Z,1.05
2022-11-19T11:15:19.878Z,1.13
2022-11-19T11:18:03.100Z,1.10
2022-11-19T11:20:34.706Z,0.90
2022-11-19T11:23:20.954Z,0.80
2022-11-19T11:26:07.037Z,0.80
2022-11-19T11:28:38.797Z,0.82
2022-11-19T11:31:13.527Z,1.10
2022-11-19T11:33:56.671Z,0.57
2022-11-19T11:36:33.285Z,0.80
2022-11-19T11:39:06.037Z,0.70
2022-11-19T11:44:40.668Z,0.70
2022-11-19T11:47:34.121Z,0.47
2022-11-19T11:50:14.692Z,0.50
2022-11-19T11:52:55.897Z,0.47
2022-11-19T11:55:29.520Z,0.65
2022-11-19T11:58:08.808Z,0.40
2022-11-19T12:00:45.324Z,0.50
2022-11-19T12:03:23.821Z,0.68
2022-11-19T12:05:57.491Z,0.50
2022-11-19T12:08:46.328Z,0.47
2022-11-19T12:11:56.149Z,0.60
2022-11-19T12:14:41.795Z,0.60
2022-11-19T12:17:33.826Z,0.60
2022-11-19T12:20:42.513Z,0.60
2022-11-19T12:23:25.124Z,0.70
2022-11-19T12:26:15.134Z,0.50
2022-11-19T12:29:07.882Z,0.70
2022-11-19T12:32:03.795Z,0.60
2022-11-19T12:34:58.686Z,0.40
2022-11-19T12:37:39.582Z,0.82
2022-11-19T12:40:38.920Z,0.43
2022-11-19T12:43:17.265Z,0.60
2022-11-19T12:46:22.780Z,0.50
2022-11-19T12:49:17.572Z,0.70
2022-11-19T12:51:48.592Z,0.77
2022-11-19T12:54:39.868Z,0.52
2022-11-19T12:57:33.764Z,0.60
2022-11-19T13:00:07.798Z,0.70
2022-11-19T13:02:58.115Z,1.10
2022-11-19T13:05:37.598Z,0.68
2022-11-19T13:08:23.424Z,0.80
2022-11-19T13:11:09.292Z,0.80
2022-11-19T13:13:44.660Z,1.00
2022-11-19T13:16:19.023Z,0.70
2022-11-19T13:18:57.232Z,1.00
2022-11-19T13:21:31.292Z,0.98
2022-11-19T13:24:35.889Z,0.70
2022-11-19T13:27:17.696Z,0.60
2022-11-19T13:30:06.215Z,1.20
2022-11-19T13:33:04.194Z,1.08
2022-11-19T13:36:18.892Z,1.38
2022-11-19T13:39:07.505Z,0.68
2022-11-19T13:42:20.380Z,0.70
2022-11-19T13:44:51.304Z,0.63
2022-11-19T13:47:51.930Z,0.70
2022-11-19T13:50:46.248Z,0.70
2022-11-19T13:53:29.753Z,0.70
2022-11-19T13:56:01.013Z,0.80
2022-11-19T13:58:42.720Z,0.73
2022-11-19T14:01:41.091Z,0.80
2022-11-19T14:04:39.527Z,0.80
2022-11-19T14:07:32.997Z,1.05
2022-11-19T14:10:39.686Z,0.80
2022-11-19T14:13:25.365Z,0.80
2022-11-19T14:16:23.419Z,0.60
2022-11-19T14:19:19.079Z,1.17
2022-11-19T14:22:10.167Z,0.80
2022-11-19T14:24:58.900Z,0.80
2022-11-19T14:27:34.623Z,0.70
2022-11-19T14:30:43.836Z,0.95
2022-11-19T14:34:03.286Z,0.60
2022-11-19T14:36:50.061Z,1.00
2022-11-19T14:39:32.564Z,1.42
2022-11-19T14:42:22.517Z,1.02
2022-11-19T14:45:05.738Z,1.00
2022-11-19T14:47:47.638Z,0.80
2022-11-19T14:50:32.239Z,1.10
2022-11-19T14:53:04.686Z,0.80
2022-11-19T14:55:37.664Z,1.08
2022-11-19T14:58:20.850Z,1.10
2022-11-19T15:00:52.958Z,2.47
2022-11-19T15:03:31.464Z,1.35
2022-11-19T15:06:09.000Z,0.93
2022-11-19T15:08:59.690Z,1.20
2022-11-19T15:11:59.216Z,1.20
2022-11-19T15:14:36.885Z,1.35
2022-11-19T15:17:12.334Z,1.00
2022-11-19T15:19:51.396Z,1.08
2022-11-19T15:22:55.813Z,1.00
2022-11-19T15:26:01.529Z,0.98
2022-11-19T15:28:41.194Z,0.80
2022-11-19T15:31:15.256Z,1.17
2022-11-19T15:33:57.865Z,1.25
2022-11-19T15:36:35.417Z,1.48
2022-11-19T15:39:13.348Z,0.80
2022-11-19T15:42:09.461Z,0.93
2022-11-19T15:44:42.488Z,1.35
2022-11-19T15:47:40.014Z,1.10
2022-11-19T15:50:21.582Z,0.65
2022-11-19T15:53:19.496Z,1.05
2022-11-19T15:58:49.359Z,0.55
2022-11-19T16:01:25.548Z,0.50
2022-11-19T16:03:57.337Z,0.40
2022-11-19T16:06:33.266Z,1.00
2022-11-19T16:09:08.828Z,0.60
2022-11-19T16:11:59.688Z,0.50
2022-11-19T16:14:50.575Z,0.40
2022-11-19T16:17:43.822Z,0.60
2022-11-19T16:20:15.326Z,1.13
2022-11-19T16:22:49.818Z,0.70
2022-11-19T16:25:28.666Z,0.50
2022-11-19T16:28:03.666Z,0.60
2022-11-19T16:30:46.708Z,0.50
2022-11-19T16:33:21.532Z,0.45
2022-11-19T16:35:54.137Z,0.50
2022-11-19T16:38:32.434Z,0.40
2022-11-19T16:41:22.628Z,0.50
2022-11-19T16:43:53.804Z,0.50
2022-11-19T16:46:28.494Z,0.40
2022-11-19T16:49:02.911Z,0.73
2022-11-19T16:51:57.657Z,0.32
2022-11-19T16:54:53.208Z,0.50
2022-11-19T16:57:25.973Z,0.93
2022-11-19T17:00:02.339Z,0.73
2022-11-19T17:02:40.283Z,0.35
2022-11-19T17:05:14.107Z,0.60
2022-11-19T17:07:49.141Z,0.45
2022-11-19T17:10:23.055Z,0.35
2022-11-19T17:13:25.005Z,0.52
2022-11-19T17:15:55.266Z,0.47
2022-11-19T17:18:30.903Z,0.55
2022-11-19T17:21:24.101Z,0.50
2022-11-19T17:23:56.877Z,0.60
2022-11-19T17:26:32.003Z,0.43
2022-11-19T17:29:25.565Z,0.70
2022-11-19T17:32:00.864Z,0.82
2022-11-19T17:34:38.275Z,0.40
2022-11-19T17:37:11.794Z,0.60
2022-11-19T17:39:42.538Z,0.50
2022-11-19T17:42:30.901Z,0.70
2022-11-19T17:45:10.304Z,0.65
2022-11-19T17:47:43.051Z,0.47
2022-11-19T17:50:14.747Z,0.32
2022-11-19T17:52:46.449Z,0.50
2022-11-19T17:55:22.726Z,0.30
2022-11-19T17:57:53.621Z,0.47
2022-11-19T18:00:24.537Z,0.40
2022-11-19T18:03:01.740Z,0.32
2022-11-19T18:05:38.791Z,0.40
2022-11-19T18:08:09.418Z,0.20
2022-11-19T18:10:40.022Z,0.30
2022-11-19T18:13:12.058Z,0.40
2022-11-19T18:15:44.009Z,0.30
2022-11-19T18:18:14.693Z,0.32
2022-11-19T18:20:45.590Z,0.20
2022-11-19T18:23:17.304Z,0.20
2022-11-19T18:25:48.046Z,0.30
2022-11-19T18:28:19.128Z,0.30
2022-11-19T18:30:51.087Z,0.20
2022-11-19T18:33:23.780Z,0.30
2022-11-19T18:35:55.638Z,0.20
2022-11-19T18:38:26.355Z,0.20
2022-11-19T18:40:57.304Z,0.20
2022-11-19T18:43:47.816Z,0.88
2022-11-19T18:46:18.692Z,0.32
2022-11-19T18:48:50.394Z,0.22
2022-11-19T18:51:21.078Z,0.22
2022-11-19T18:53:52.029Z,0.98
2022-11-19T18:56:25.076Z,0.40
2022-11-19T18:58:58.127Z,0.32
2022-11-19T19:01:32.823Z,0.30
2022-11-19T19:04:03.731Z,0.30
2022-11-19T19:06:35.842Z,0.13
2022-11-19T19:09:06.694Z,0.25
2022-11-19T19:11:57.181Z,0.30
2022-11-19T19:14:28.012Z,0.28
2022-11-19T19:16:58.925Z,0.30
2022-11-19T19:19:29.659Z,0.52
2022-11-19T19:22:01.535Z,0.30
2022-11-19T19:24:34.577Z,0.52
2022-11-19T19:27:05.538Z,0.93
2022-11-19T19:29:36.189Z,1.05
2022-11-19T19:32:07.410Z,0.95
2022-11-19T19:34:38.584Z,0.95
2022-11-19T19:37:09.413Z,0.80
2022-11-19T19:39:40.125Z,0.80
2022-11-19T19:42:11.998Z,0.60
2022-11-19T19:44:42.691Z,0.57
2022-11-19T19:47:14.338Z,0.38
2022-11-19T19:49:44.973Z,0.60
2022-11-19T19:52:15.817Z,0.30
2022-11-19T19:54:46.556Z,0.32
2022-11-19T19:57:18.600Z,0.73
2022-11-19T19:59:49.155Z,1.20
2022-11-19T20:02:19.838Z,0.40
2022-11-19T20:04:52.633Z,0.20
2022-11-19T20:07:23.452Z,0.20
2022-11-19T20:09:54.181Z,0.20
2022-11-19T20:12:25.032Z,0.40
2022-11-19T20:14:55.700Z,0.25
2022-11-19T20:17:26.427Z,0.40
2022-11-19T20:19:57.022Z,0.25
2022-11-19T20:22:28.384Z,0.20
2022-11-19T20:25:01.240Z,0.40
2022-11-19T20:27:34.020Z,0.20
2022-11-19T20:30:05.879Z,0.52
2022-11-19T20:32:37.929Z,0.20
2022-11-19T20:35:08.750Z,0.20
2022-11-19T20:37:40.372Z,0.40
2022-11-19T20:40:12.842Z,0.60
2022-11-19T20:43:02.682Z,0.30
2022-11-19T20:45:33.566Z,0.13
2022-11-19T20:48:06.294Z,0.20
2022-11-19T20:50:36.911Z,0.30
2022-11-19T20:53:09.896Z,0.80
2022-11-19T20:56:03.802Z,0.65
2022-11-19T20:58:32.345Z,0.20
2022-11-19T21:01:04.598Z,0.10
2022-11-19T21:03:36.617Z,0.10
2022-11-19T21:06:10.876Z,0.30
2022-11-19T21:08:41.764Z,0.10
2022-11-19T21:11:14.666Z,0.20
2022-11-19T21:13:48.643Z,0.30
2022-11-19T21:16:23.103Z,0.20
2022-11-19T21:18:54.746Z,0.10
2022-11-19T21:21:27.420Z,0.20
2022-11-19T21:23:58.461Z,0.10
2022-11-19T21:26:30.659Z,0.60
2022-11-19T21:29:02.472Z,0.30
2022-11-19T21:31:43.551Z,0.20
2022-11-19T21:34:16.792Z,0.30
2022-11-19T21:36:51.183Z,0.10
2022-11-19T21:39:24.736Z,0.40
2022-11-19T21:41:56.752Z,0.10
2022-11-19T21:44:27.513Z,0.30
2022-11-19T21:46:59.139Z,0.47
2022-11-19T21:49:29.834Z,0.20
2022-11-19T21:52:00.790Z,0.50
2022-11-19T21:54:31.492Z,0.43
2022-11-19T21:57:02.398Z,0.20
2022-11-19T21:59:33.316Z,0.57
2022-11-19T22:02:03.895Z,0.28
2022-11-19T22:04:34.609Z,0.10
2022-11-19T22:07:06.094Z,0.10
2022-11-19T22:09:37.141Z,0.10
2022-11-19T22:12:09.623Z,0.10
2022-11-19T22:14:40.742Z,0.50
2022-11-19T22:17:11.376Z,0.10
2022-11-19T22:19:42.074Z,0.10
2022-11-19T22:22:12.905Z,0.10
2022-11-19T22:24:43.557Z,0.20
2022-11-19T22:27:14.252Z,0.15
2022-11-19T22:29:47.133Z,0.30
2022-11-19T22:32:17.901Z,0.63
2022-11-19T22:34:49.131Z,0.10
2022-11-19T22:37:21.320Z,0.20
2022-11-19T22:39:51.962Z,0.10
2022-11-19T22:42:23.307Z,0.17
2022-11-19T22:44:55.605Z,0.13
2022-11-19T22:47:27.200Z,0.10
2022-11-19T22:49:58.005Z,0.05
2022-11-19T22:52:28.676Z,0.10
2022-11-19T22:54:59.510Z,0.20
2022-11-19T22:57:30.735Z,0.30
2022-11-19T23:00:03.382Z,0.10
2022-11-19T23:02:34.008Z,0.10
2022-11-19T23:05:05.786Z,0.20
2022-11-19T23:07:37.404Z,0.20
2022-11-19T23:10:09.863Z,0.10
2022-11-19T23:12:58.355Z,0.03
2022-11-19T23:15:30.319Z,0.10
2022-11-19T23:18:02.104Z,0.10
2022-11-19T23:20:34.479Z,0.10
2022-11-19T23:23:05.774Z,0.10
2022-11-19T23:25:37.850Z,0.10
2022-11-19T23:28:10.447Z,0.10
2022-11-19T23:30:41.308Z,0.30
2022-11-19T23:33:12.862Z,0.10
2022-11-19T23:35:43.790Z,0.10
2022-11-19T23:38:15.992Z,0.10
2022-11-19T23:40:47.849Z,0.00
2022-11-19T23:43:18.468Z,0.00
2022-11-19T23:45:50.679Z,0.00
2022-11-19T23:48:21.791Z,0.10
2022-11-19T23:50:52.594Z,0.08
2022-11-19T23:53:23.255Z,0.10
2022-11-19T23:55:54.093Z,0.10
2022-11-19T23:58:25.133Z,0.10
